METAR Data
IDs: Format: Raw Decoded Include TAF

Data at: 1308 UTC 17 Sep 2019

METAR for:K04V (Saguache Muni, CO, US)
Text:K04V 171254Z AUTO 00000KT 10SM CLR 06/06 A3026 RMK AO2 PWINO
Temperature: 6.0°C ( 43°F)
Dewpoint: 6.0°C ( 43°F) [RH = 100%]
Pressure (altimeter):30.26 inches Hg (1024.8 mb)
Winds:calm
Visibility:10 or more sm (16+ km)
Ceiling:at least 12,000 feet AGL
Clouds:sky clear below 12,000 feet AGL
QC Flag:automated observation with no human augmentation